Архив погоды в Амдерме

Метеограмма Амдерма
Вторник, 14 Августа
Время местн. Темп Ветер Видим Явления Облачность нижн/средн/верх Атм. давл. Влжн Точка росы ВНГО R Сост. почвы Tg s
Напр Скр Прв ур.ст ур.м изм
12:00 +9° С-З 4 - 10 км - преимущественно облачно 738 742 +1.2 93% +8° 600 м - - - -
09:00 +12.3° З,Ю-З 6 - 10 км ливневый дождь облачно 737 741 +0.8 94% +11.3° 1 км - - - -
06:00 +11.7° Ю 8 11 10 км слабый ливневый дождь облачно 736 740 -0.2 100% +11.7° 600 м 0.5 Влажная (без луж) - -
03:00 +7.7° В 4 - 2 км дымка {ливневые осадки} облачно 736 741 -1.3 100% +7.7° 600 м - - - -
00:00 +7.3° В 7 - 10 км слабый ливневый дождь облачно 737 742 -2.1 99% +7.1° 600 м - - - -
Понедельник, 13 Августа
Время местн. Темп Ветер Видим Явления Облачность нижн/средн/верх Атм. давл. Влжн Точка росы ВНГО R Сост. почвы Tg s
Напр Скр Прв ур.ст ур.м изм
21:00 +7° В 4 - 10 км - преимущественно облачно 739 744 -1.5 93% +5.9° 600 м - - - -
18:00 +9° З 2 - 10 км - преимущественно облачно 741 745 -0.8 77% +5.1° 600 м 0 - - -
15:00 +9° З 5 - 10 км - облачно 742 749 -0.6 78% +5.3° 600 м - - - -
12:00 +8.4° З 6 - 10 км - облачно 742 747 -0.1 83% +5.7° 600 м - - - -
09:00 +7.9° З 7 10 10 км - облачно 742 747 0 85% +5.5° 600 м - - - -
06:00 +6.5° З 4 - 4 км дымка облачно 742 747 -0.1 96% +5.9° 600 м 0 Влажная (без луж) - -
03:00 +7° З 5 - 10 км - преимущественно облачно 742 747 -0.4 96% +6.4° 1 км - - - -
00:00 +6.9° З 5 - 10 км - облачно 743 747 -0.7 97% +6.5° 1 км - - - -
Воскресенье, 12 Августа
Время местн. Темп Ветер Видим Явления Облачность нижн/средн/верх Атм. давл. Влжн Точка росы ВНГО R Сост. почвы Tg s
Напр Скр Прв ур.ст ур.м изм
21:00 +6.6° З 3 - 10 км - облачно 744 748 -0.5 95% +5.9° 1 км - - - -
18:00 +6.7° З,С-З 3 - 10 км - облачно 744 749 -0.4 93% +5.6° 1 км 0 - - -
15:00 +6.9° С-З 3 - 10 км - облачно 744 749 +0.6 91% +5.6° 1 км - - - -
12:00 +7.1° С-З 5 - 10 км - облачно 744 748 +0.4 91% +5.7° 600 м - - - -
09:00 +6.2° С-З 4 - 10 км - облачно 743 748 +0.3 96% +5.6° 600 м - - - -
06:00 +5.4° С,С-З 6 14 4 км дымка облачно 743 748 +0.5 99% +5.3° 600 м 0 Влажная (без луж) +5° -
03:00 +6° С 8 12 10 км небо без изменений {ливневые осадки} облачно 743 747 +0.2 95% +5.3° 600 м - - - -
00:00 +6.1° С-З 7 12 10 км небо без изменений {ливневые осадки} облачно 743 747 -0.1 99% +5.9° 600 м - - - -
Суббота, 11 Августа
Время местн. Темп Ветер Видим Явления Облачность нижн/средн/верх Атм. давл. Влжн Точка росы ВНГО R Сост. почвы Tg s
Напр Скр Прв ур.ст ур.м изм
21:00 +6.4° С-З 7 11 10 км - преимущественно облачно 743 747 -0.4 94% +5.5° 600 м - - - -
18:00 +6.6° С-З 6 10 10 км - преимущественно облачно 743 748 -0.1 91% +5.2° 600 м 0 - - -
15:00 +6.6° З,С-З 6 - 10 км небо без изменений {морось} облачно 743 748 +0.2 91% +5.2° 600 м - - - -
12:00 +6.3° С-З 5 - 4 км осадки вдали станции {морось} преимущественно облачно 743 747 +0.4 97% +5.9° 600 м - - - -
09:00 +6.2° С-З 5 - 10 км небо без изменений {ливневые осадки, морось} облачно 743 747 +0.2 93% +5.1° 600 м - - - -